sensor_id;sensor_type;location;lat;lon;timestamp;pressure;altitude;pressure_sealevel;temperature;humidity
61484;BME280;47349;55.640;37.692;2022-12-07T00:03:51;100488.44;;;-9.28;63.29
61484;BME280;47349;55.640;37.692;2022-12-07T00:06:19;100473.91;;;-9.37;63.81
61484;BME280;47349;55.640;37.692;2022-12-07T00:08:47;100495.56;;;-9.39;63.87
61484;BME280;47349;55.640;37.692;2022-12-07T00:11:20;100443.84;;;-9.47;63.72
61484;BME280;47349;55.640;37.692;2022-12-07T00:13:52;100468.75;;;-9.40;63.99
61484;BME280;47349;55.640;37.692;2022-12-07T00:16:21;100476.59;;;-9.41;63.82
61484;BME280;47349;55.640;37.692;2022-12-07T00:18:49;100463.88;;;-9.55;63.40
61484;BME280;47349;55.640;37.692;2022-12-07T00:21:19;100450.09;;;-9.57;63.21
61484;BME280;47349;55.640;37.692;2022-12-07T00:23:48;100460.31;;;-9.49;63.24
61484;BME280;47349;55.640;37.692;2022-12-07T00:26:17;100476.47;;;-9.35;63.20
61484;BME280;47349;55.640;37.692;2022-12-07T00:28:48;100466.38;;;-9.50;62.51
61484;BME280;47349;55.640;37.692;2022-12-07T00:31:17;100465.53;;;-9.51;62.65
61484;BME280;47349;55.640;37.692;2022-12-07T00:33:46;100477.25;;;-9.33;62.21
61484;BME280;47349;55.640;37.692;2022-12-07T00:36:16;100463.53;;;-9.37;62.63
61484;BME280;47349;55.640;37.692;2022-12-07T00:38:51;100485.09;;;-9.35;62.52
61484;BME280;47349;55.640;37.692;2022-12-07T00:41:21;100488.53;;;-9.34;62.57
61484;BME280;47349;55.640;37.692;2022-12-07T00:43:50;100485.97;;;-9.36;62.76
61484;BME280;47349;55.640;37.692;2022-12-07T00:46:18;100463.78;;;-9.50;62.60
61484;BME280;47349;55.640;37.692;2022-12-07T00:48:47;100472.38;;;-9.47;62.27
61484;BME280;47349;55.640;37.692;2022-12-07T00:51:16;100472.47;;;-9.53;62.44
61484;BME280;47349;55.640;37.692;2022-12-07T00:53:44;100460.25;;;-9.48;61.96
61484;BME280;47349;55.640;37.692;2022-12-07T00:56:16;100467.19;;;-9.47;62.19
61484;BME280;47349;55.640;37.692;2022-12-07T00:58:44;100496.53;;;-9.45;62.32
61484;BME280;47349;55.640;37.692;2022-12-07T01:01:15;100442.41;;;-9.62;62.35
61484;BME280;47349;55.640;37.692;2022-12-07T01:03:42;100475.75;;;-9.42;62.36
61484;BME280;47349;55.640;37.692;2022-12-07T01:06:14;100482.66;;;-9.42;62.50
61484;BME280;47349;55.640;37.692;2022-12-07T01:08:42;100465.63;;;-9.55;62.46
61484;BME280;47349;55.640;37.692;2022-12-07T01:11:09;100475.03;;;-9.50;62.44
61484;BME280;47349;55.640;37.692;2022-12-07T01:13:38;100466.59;;;-9.61;62.26
61484;BME280;47349;55.640;37.692;2022-12-07T01:16:05;100469.94;;;-9.54;62.40
61484;BME280;47349;55.640;37.692;2022-12-07T01:18:35;100472.69;;;-9.64;62.51
61484;BME280;47349;55.640;37.692;2022-12-07T01:21:18;100469.97;;;-9.56;63.05
61484;BME280;47349;55.640;37.692;2022-12-07T01:23:48;100458.91;;;-9.67;63.03
61484;BME280;47349;55.640;37.692;2022-12-07T01:26:17;100439.41;;;-9.87;62.92
61484;BME280;47349;55.640;37.692;2022-12-07T01:28:45;100474.63;;;-9.73;63.11
61484;BME280;47349;55.640;37.692;2022-12-07T01:31:14;100454.00;;;-9.79;62.99
61484;BME280;47349;55.640;37.692;2022-12-07T01:33:43;100471.03;;;-9.66;63.42
61484;BME280;47349;55.640;37.692;2022-12-07T01:36:20;100467.59;;;-9.68;63.02
61484;BME280;47349;55.640;37.692;2022-12-07T01:38:49;100443.66;;;-9.81;63.25
61484;BME280;47349;55.640;37.692;2022-12-07T01:41:20;100460.69;;;-9.69;63.19
61484;BME280;47349;55.640;37.692;2022-12-07T01:46:45;100445.31;;;-9.78;63.26
61484;BME280;47349;55.640;37.692;2022-12-07T01:49:18;100435.88;;;-9.81;62.94
61484;BME280;47349;55.640;37.692;2022-12-07T01:51:49;100456.34;;;-9.67;63.38
61484;BME280;47349;55.640;37.692;2022-12-07T01:54:20;100428.94;;;-9.82;63.47
61484;BME280;47349;55.640;37.692;2022-12-07T01:56:51;100446.09;;;-9.73;63.88
61484;BME280;47349;55.640;37.692;2022-12-07T01:59:22;100448.69;;;-9.73;63.78
61484;BME280;47349;55.640;37.692;2022-12-07T02:01:53;100447.91;;;-9.78;63.58
61484;BME280;47349;55.640;37.692;2022-12-07T02:04:22;100465.13;;;-9.74;63.84
61484;BME280;47349;55.640;37.692;2022-12-07T02:06:50;100475.47;;;-9.71;64.07
61484;BME280;47349;55.640;37.692;2022-12-07T02:09:18;100444.47;;;-9.79;63.58
61484;BME280;47349;55.640;37.692;2022-12-07T02:11:45;100445.19;;;-9.72;63.45
61484;BME280;47349;55.640;37.692;2022-12-07T02:14:12;100426.53;;;-9.90;63.84
61484;BME280;47349;55.640;37.692;2022-12-07T02:27:50;100444.34;;;-9.71;63.96
61484;BME280;47349;55.640;37.692;2022-12-07T02:30:21;100433.25;;;-9.79;64.07
61484;BME280;47349;55.640;37.692;2022-12-07T02:33:03;100440.03;;;-9.74;64.01
61484;BME280;47349;55.640;37.692;2022-12-07T02:36:04;100437.44;;;-9.74;63.79
61484;BME280;47349;55.640;37.692;2022-12-07T02:38:46;100438.38;;;-9.76;63.94
61484;BME280;47349;55.640;37.692;2022-12-07T02:41:31;100425.50;;;-9.82;63.94
61484;BME280;47349;55.640;37.692;2022-12-07T02:44:04;100446.97;;;-9.74;63.61
61484;BME280;47349;55.640;37.692;2022-12-07T02:46:40;100430.56;;;-9.75;63.80
61484;BME280;47349;55.640;37.692;2022-12-07T02:49:10;100444.34;;;-9.73;63.83
61484;BME280;47349;55.640;37.692;2022-12-07T02:51:42;100409.94;;;-9.81;63.49
61484;BME280;47349;55.640;37.692;2022-12-07T02:54:16;100437.28;;;-9.65;63.75
61484;BME280;47349;55.640;37.692;2022-12-07T03:05:08;100420.72;;;-9.59;63.71
61484;BME280;47349;55.640;37.692;2022-12-07T03:07:52;100429.34;;;-9.59;63.75
61484;BME280;47349;55.640;37.692;2022-12-07T03:10:27;100438.97;;;-9.64;63.86
61484;BME280;47349;55.640;37.692;2022-12-07T03:18:10;100408.16;;;-9.79;64.13
61484;BME280;47349;55.640;37.692;2022-12-07T03:20:41;100452.03;;;-9.68;64.30
61484;BME280;47349;55.640;37.692;2022-12-07T03:23:12;100409.19;;;-9.86;64.24
61484;BME280;47349;55.640;37.692;2022-12-07T03:25:42;100434.03;;;-9.76;64.40
61484;BME280;47349;55.640;37.692;2022-12-07T03:28:14;100406.63;;;-9.89;64.48
61484;BME280;47349;55.640;37.692;2022-12-07T03:30:56;100416.00;;;-9.82;64.82
61484;BME280;47349;55.640;37.692;2022-12-07T03:33:30;100406.53;;;-9.85;64.81
61484;BME280;47349;55.640;37.692;2022-12-07T03:36:03;100426.41;;;-9.84;64.66
61484;BME280;47349;55.640;37.692;2022-12-07T03:43:35;100428.09;;;-9.82;65.56
61484;BME280;47349;55.640;37.692;2022-12-07T03:49:13;100427.19;;;-9.80;65.84
61484;BME280;47349;55.640;37.692;2022-12-07T03:54:19;100423.97;;;-9.93;66.18
61484;BME280;47349;55.640;37.692;2022-12-07T03:56:50;100441.44;;;-10.02;66.43
61484;BME280;47349;55.640;37.692;2022-12-07T03:59:19;100428.41;;;-9.98;66.29
61484;BME280;47349;55.640;37.692;2022-12-07T04:01:56;100418.16;;;-10.04;66.35
61484;BME280;47349;55.640;37.692;2022-12-07T04:04:24;100418.91;;;-9.99;66.59
61484;BME280;47349;55.640;37.692;2022-12-07T04:06:54;100421.56;;;-10.02;67.04
61484;BME280;47349;55.640;37.692;2022-12-07T04:09:22;100417.47;;;-10.14;66.73
61484;BME280;47349;55.640;37.692;2022-12-07T04:11:49;100427.72;;;-10.07;67.33
61484;BME280;47349;55.640;37.692;2022-12-07T04:14:16;100416.31;;;-9.99;66.98
61484;BME280;47349;55.640;37.692;2022-12-07T04:16:52;100415.47;;;-10.01;67.13
61484;BME280;47349;55.640;37.692;2022-12-07T04:19:22;100387.34;;;-10.19;67.21
61484;BME280;47349;55.640;37.692;2022-12-07T04:21:50;100405.34;;;-10.13;68.54
61484;BME280;47349;55.640;37.692;2022-12-07T04:24:18;100418.31;;;-10.13;68.26
61484;BME280;47349;55.640;37.692;2022-12-07T04:26:46;100415.13;;;-10.24;67.88
61484;BME280;47349;55.640;37.692;2022-12-07T04:29:14;100385.97;;;-10.37;68.02
61484;BME280;47349;55.640;37.692;2022-12-07T04:31:41;100386.00;;;-10.39;68.69
61484;BME280;47349;55.640;37.692;2022-12-07T04:34:10;100402.25;;;-10.30;68.97
61484;BME280;47349;55.640;37.692;2022-12-07T04:36:56;100411.78;;;-10.32;68.73
61484;BME280;47349;55.640;37.692;2022-12-07T04:39:25;100411.56;;;-10.22;69.36
61484;BME280;47349;55.640;37.692;2022-12-07T04:41:53;100403.78;;;-10.22;69.36
61484;BME280;47349;55.640;37.692;2022-12-07T04:44:22;100396.97;;;-10.26;68.74
61484;BME280;47349;55.640;37.692;2022-12-07T04:47:06;100400.66;;;-10.38;69.29
61484;BME280;47349;55.640;37.692;2022-12-07T04:49:36;100393.72;;;-10.37;69.53
61484;BME280;47349;55.640;37.692;2022-12-07T04:52:03;100372.22;;;-10.42;69.46
61484;BME280;47349;55.640;37.692;2022-12-07T04:54:31;100400.47;;;-10.27;69.24
61484;BME280;47349;55.640;37.692;2022-12-07T04:56:58;100399.78;;;-10.37;69.74
61484;BME280;47349;55.640;37.692;2022-12-07T04:59:26;100408.22;;;-10.27;70.14
61484;BME280;47349;55.640;37.692;2022-12-07T05:02:12;100413.66;;;-10.39;70.09
61484;BME280;47349;55.640;37.692;2022-12-07T05:04:53;100394.69;;;-10.43;70.74
61484;BME280;47349;55.640;37.692;2022-12-07T05:07:21;100409.41;;;-10.45;70.54
61484;BME280;47349;55.640;37.692;2022-12-07T05:09:48;100392.31;;;-10.53;71.16
61484;BME280;47349;55.640;37.692;2022-12-07T05:12:30;100413.06;;;-10.56;71.83
61484;BME280;47349;55.640;37.692;2022-12-07T05:14:58;100390.72;;;-10.62;71.54
61484;BME280;47349;55.640;37.692;2022-12-07T05:17:39;100404.28;;;-10.49;71.75
61484;BME280;47349;55.640;37.692;2022-12-07T05:20:07;100420.75;;;-10.52;72.35
61484;BME280;47349;55.640;37.692;2022-12-07T05:22:49;100398.53;;;-10.65;72.07
61484;BME280;47349;55.640;37.692;2022-12-07T05:25:16;100401.13;;;-10.65;72.95
61484;BME280;47349;55.640;37.692;2022-12-07T05:27:43;100380.47;;;-10.68;72.62
61484;BME280;47349;55.640;37.692;2022-12-07T05:30:11;100414.03;;;-10.62;72.87
61484;BME280;47349;55.640;37.692;2022-12-07T05:32:47;100402.81;;;-10.63;73.77
61484;BME280;47349;55.640;37.692;2022-12-07T05:35:29;100378.03;;;-10.77;73.61
61484;BME280;47349;55.640;37.692;2022-12-07T05:37:58;100377.81;;;-10.65;73.40
61484;BME280;47349;55.640;37.692;2022-12-07T05:40:26;100387.16;;;-10.56;73.00
61484;BME280;47349;55.640;37.692;2022-12-07T05:42:53;100392.31;;;-10.55;73.56
61484;BME280;47349;55.640;37.692;2022-12-07T05:45:26;100389.78;;;-10.58;73.66
61484;BME280;47349;55.640;37.692;2022-12-07T05:48:08;100374.28;;;-10.61;73.91
61484;BME280;47349;55.640;37.692;2022-12-07T05:50:36;100382.88;;;-10.57;73.25
61484;BME280;47349;55.640;37.692;2022-12-07T05:53:19;100399.25;;;-10.57;74.34
61484;BME280;47349;55.640;37.692;2022-12-07T05:55:49;100401.75;;;-10.51;73.78
61484;BME280;47349;55.640;37.692;2022-12-07T05:58:23;100353.78;;;-10.73;74.33
61484;BME280;47349;55.640;37.692;2022-12-07T06:01:11;100407.69;;;-10.46;74.74
61484;BME280;47349;55.640;37.692;2022-12-07T06:03:40;100377.06;;;-10.72;75.06
61484;BME280;47349;55.640;37.692;2022-12-07T06:06:08;100408.75;;;-10.56;75.11
61484;BME280;47349;55.640;37.692;2022-12-07T06:08:36;100384.53;;;-10.55;74.92
61484;BME280;47349;55.640;37.692;2022-12-07T06:11:21;100414.56;;;-10.45;75.75
61484;BME280;47349;55.640;37.692;2022-12-07T06:14:06;100403.19;;;-10.34;75.64
61484;BME280;47349;55.640;37.692;2022-12-07T06:16:34;100406.88;;;-10.48;76.24
61484;BME280;47349;55.640;37.692;2022-12-07T06:19:02;100387.91;;;-10.50;75.52
61484;BME280;47349;55.640;37.692;2022-12-07T06:21:33;100370.94;;;-10.66;76.21
61484;BME280;47349;55.640;37.692;2022-12-07T06:24:16;100408.53;;;-10.45;76.78
61484;BME280;47349;55.640;37.692;2022-12-07T06:26:44;100410.13;;;-10.37;76.70
61484;BME280;47349;55.640;37.692;2022-12-07T06:29:13;100406.56;;;-10.29;77.08
61484;BME280;47349;55.640;37.692;2022-12-07T06:31:41;100387.81;;;-10.45;77.15
61484;BME280;47349;55.640;37.692;2022-12-07T06:34:11;100391.25;;;-10.45;77.63
61484;BME280;47349;55.640;37.692;2022-12-07T06:36:39;100401.63;;;-10.43;77.79
61484;BME280;47349;55.640;37.692;2022-12-07T06:39:06;100382.72;;;-10.50;77.71
61484;BME280;47349;55.640;37.692;2022-12-07T06:41:39;100394.78;;;-10.47;77.82
61484;BME280;47349;55.640;37.692;2022-12-07T06:44:20;100385.91;;;-10.36;78.16
61484;BME280;47349;55.640;37.692;2022-12-07T06:46:49;100391.88;;;-10.30;78.31
61484;BME280;47349;55.640;37.692;2022-12-07T06:49:17;100389.84;;;-10.16;77.99
61484;BME280;47349;55.640;37.692;2022-12-07T06:51:44;100394.22;;;-10.18;77.95
61484;BME280;47349;55.640;37.692;2022-12-07T06:54:11;100395.72;;;-10.05;78.12
61484;BME280;47349;55.640;37.692;2022-12-07T06:56:39;100392.13;;;-9.99;77.38
61484;BME280;47349;55.640;37.692;2022-12-07T06:59:09;100385.44;;;-10.11;77.17
61484;BME280;47349;55.640;37.692;2022-12-07T07:01:36;100403.69;;;-10.17;77.02
61484;BME280;47349;55.640;37.692;2022-12-07T07:04:04;100382.03;;;-10.13;76.88
61484;BME280;47349;55.640;37.692;2022-12-07T07:06:31;100381.22;;;-10.15;77.34
61484;BME280;47349;55.640;37.692;2022-12-07T07:08:59;100401.78;;;-10.07;77.09
61484;BME280;47349;55.640;37.692;2022-12-07T07:11:26;100415.47;;;-9.99;77.35
61484;BME280;47349;55.640;37.692;2022-12-07T07:13:54;100361.63;;;-10.28;77.26
61484;BME280;47349;55.640;37.692;2022-12-07T07:16:24;100412.16;;;-10.07;77.16
61484;BME280;47349;55.640;37.692;2022-12-07T07:18:51;100419.97;;;-10.09;77.35
61484;BME280;47349;55.640;37.692;2022-12-07T07:21:18;100409.59;;;-10.09;77.22
61484;BME280;47349;55.640;37.692;2022-12-07T07:23:45;100371.84;;;-10.22;76.82
61484;BME280;47349;55.640;37.692;2022-12-07T07:26:13;100400.94;;;-10.08;76.35
61484;BME280;47349;55.640;37.692;2022-12-07T07:28:47;100388.91;;;-10.12;76.42
61484;BME280;47349;55.640;37.692;2022-12-07T07:31:14;100395.59;;;-9.99;76.79
61484;BME280;47349;55.640;37.692;2022-12-07T07:33:41;100387.09;;;-10.07;75.97
61484;BME280;47349;55.640;37.692;2022-12-07T07:36:08;100366.34;;;-10.07;76.39
61484;BME280;47349;55.640;37.692;2022-12-07T07:38:36;100361.06;;;-10.02;76.19
61484;BME280;47349;55.640;37.692;2022-12-07T07:41:06;100364.59;;;-10.05;76.11
61484;BME280;47349;55.640;37.692;2022-12-07T07:43:33;100393.06;;;-10.03;76.14
61484;BME280;47349;55.640;37.692;2022-12-07T07:46:00;100375.88;;;-10.07;76.06
61484;BME280;47349;55.640;37.692;2022-12-07T07:48:28;100371.41;;;-10.01;75.96
61484;BME280;47349;55.640;37.692;2022-12-07T07:50:55;100371.44;;;-10.02;75.89
61484;BME280;47349;55.640;37.692;2022-12-07T07:53:22;100369.88;;;-10.10;75.73
61484;BME280;47349;55.640;37.692;2022-12-07T07:55:50;100386.69;;;-9.87;76.19
61484;BME280;47349;55.640;37.692;2022-12-07T07:58:17;100372.97;;;-9.92;76.30
61484;BME280;47349;55.640;37.692;2022-12-07T08:00:45;100342.88;;;-10.01;75.95
61484;BME280;47349;55.640;37.692;2022-12-07T08:03:12;100378.19;;;-9.94;75.52
61484;BME280;47349;55.640;37.692;2022-12-07T08:05:39;100391.44;;;-9.64;75.11
61484;BME280;47349;55.640;37.692;2022-12-07T08:08:06;100399.06;;;-9.56;75.03
61484;BME280;47349;55.640;37.692;2022-12-07T08:10:34;100389.59;;;-9.59;74.63
61484;BME280;47349;55.640;37.692;2022-12-07T08:13:02;100386.03;;;-9.55;74.65
61484;BME280;47349;55.640;37.692;2022-12-07T08:15:43;100371.53;;;-9.64;74.54
61484;BME280;47349;55.640;37.692;2022-12-07T08:18:10;100372.31;;;-9.60;74.31
61484;BME280;47349;55.640;37.692;2022-12-07T08:20:39;100366.03;;;-9.50;74.38
61484;BME280;47349;55.640;37.692;2022-12-07T08:23:07;100374.31;;;-9.33;73.64
61484;BME280;47349;55.640;37.692;2022-12-07T08:25:39;100346.75;;;-9.38;73.60
61484;BME280;47349;55.640;37.692;2022-12-07T08:28:07;100361.09;;;-9.22;73.03
61484;BME280;47349;55.640;37.692;2022-12-07T08:30:34;100385.16;;;-9.14;72.23
61484;BME280;47349;55.640;37.692;2022-12-07T08:33:02;100368.78;;;-9.19;72.30
61484;BME280;47349;55.640;37.692;2022-12-07T08:35:43;100362.63;;;-9.13;72.09
61484;BME280;47349;55.640;37.692;2022-12-07T08:38:10;100341.66;;;-9.06;71.35
61484;BME280;47349;55.640;37.692;2022-12-07T08:40:37;100372.50;;;-8.92;70.70
61484;BME280;47349;55.640;37.692;2022-12-07T08:43:04;100361.03;;;-8.83;70.50
61484;BME280;47349;55.640;37.692;2022-12-07T08:45:53;100362.75;;;-8.82;70.31
61484;BME280;47349;55.640;37.692;2022-12-07T08:48:25;100350.03;;;-8.93;69.92
61484;BME280;47349;55.640;37.692;2022-12-07T08:50:52;100342.75;;;-8.78;69.57
61484;BME280;47349;55.640;37.692;2022-12-07T08:53:19;100341.66;;;-8.70;69.14
61484;BME280;47349;55.640;37.692;2022-12-07T08:55:48;100360.63;;;-8.66;68.64
61484;BME280;47349;55.640;37.692;2022-12-07T08:58:15;100334.91;;;-8.77;68.63
61484;BME280;47349;55.640;37.692;2022-12-07T09:00:56;100342.53;;;-8.69;68.51
61484;BME280;47349;55.640;37.692;2022-12-07T09:03:23;100339.03;;;-8.68;68.41
61484;BME280;47349;55.640;37.692;2022-12-07T09:05:53;100347.72;;;-8.69;68.32
61484;BME280;47349;55.640;37.692;2022-12-07T09:08:23;100306.28;;;-8.74;67.82
61484;BME280;47349;55.640;37.692;2022-12-07T09:10:54;100314.78;;;-8.69;68.33
61484;BME280;47349;55.640;37.692;2022-12-07T09:13:21;100318.78;;;-8.56;67.66
61484;BME280;47349;55.640;37.692;2022-12-07T09:15:49;100341.88;;;-8.45;67.88
61484;BME280;47349;55.640;37.692;2022-12-07T09:18:16;100315.06;;;-8.47;67.33
61484;BME280;47349;55.640;37.692;2022-12-07T09:20:44;100325.44;;;-8.45;66.82
61484;BME280;47349;55.640;37.692;2022-12-07T09:23:12;100331.81;;;-8.26;66.40
61484;BME280;47349;55.640;37.692;2022-12-07T09:25:39;100329.91;;;-8.19;66.70
61484;BME280;47349;55.640;37.692;2022-12-07T09:28:06;100304.88;;;-8.23;66.56
61484;BME280;47349;55.640;37.692;2022-12-07T09:30:33;100301.81;;;-8.36;66.46
61484;BME280;47349;55.640;37.692;2022-12-07T09:33:21;100301.38;;;-8.22;65.81
61484;BME280;47349;55.640;37.692;2022-12-07T09:35:50;100295.63;;;-8.34;65.96
61484;BME280;47349;55.640;37.692;2022-12-07T09:38:19;100307.47;;;-8.23;65.60
61484;BME280;47349;55.640;37.692;2022-12-07T09:40:49;100310.66;;;-8.14;65.07
61484;BME280;47349;55.640;37.692;2022-12-07T09:43:20;100320.28;;;-8.17;65.29
61484;BME280;47349;55.640;37.692;2022-12-07T09:45:51;100289.44;;;-8.30;65.75
61484;BME280;47349;55.640;37.692;2022-12-07T09:48:25;100308.31;;;-8.21;65.13
61484;BME280;47349;55.640;37.692;2022-12-07T09:50:58;100301.72;;;-8.35;64.99
61484;BME280;47349;55.640;37.692;2022-12-07T09:53:37;100291.31;;;-8.35;65.04
61484;BME280;47349;55.640;37.692;2022-12-07T09:56:05;100301.03;;;-8.40;64.66
61484;BME280;47349;55.640;37.692;2022-12-07T09:58:34;100301.63;;;-8.32;64.85
61484;BME280;47349;55.640;37.692;2022-12-07T10:03:39;100254.38;;;-8.44;64.73
61484;BME280;47349;55.640;37.692;2022-12-07T10:06:07;100279.81;;;-8.26;64.84
61484;BME280;47349;55.640;37.692;2022-12-07T10:08:34;100268.94;;;-8.39;65.16
61484;BME280;47349;55.640;37.692;2022-12-07T10:11:02;100262.59;;;-8.30;64.44
61484;BME280;47349;55.640;37.692;2022-12-07T10:16:06;100281.28;;;-8.16;64.39
61484;BME280;47349;55.640;37.692;2022-12-07T10:18:52;100254.88;;;-8.33;64.29
61484;BME280;47349;55.640;37.692;2022-12-07T10:21:23;100273.34;;;-8.11;64.29
61484;BME280;47349;55.640;37.692;2022-12-07T10:29:28;100280.16;;;-8.07;64.62
61484;BME280;47349;55.640;37.692;2022-12-07T10:32:30;100267.41;;;-8.16;64.37
61484;BME280;47349;55.640;37.692;2022-12-07T10:35:35;100246.06;;;-8.28;64.60
61484;BME280;47349;55.640;37.692;2022-12-07T10:38:15;100281.94;;;-8.09;64.53
61484;BME280;47349;55.640;37.692;2022-12-07T10:40:43;100246.03;;;-8.26;64.42
61484;BME280;47349;55.640;37.692;2022-12-07T10:46:05;100270.53;;;-8.05;64.65
61484;BME280;47349;55.640;37.692;2022-12-07T10:51:37;100256.00;;;-8.12;65.08
61484;BME280;47349;55.640;37.692;2022-12-07T10:54:13;100249.22;;;-8.16;64.89
61484;BME280;47349;55.640;37.692;2022-12-07T11:10:59;100218.75;;;-8.41;66.03
61484;BME280;47349;55.640;37.692;2022-12-07T11:14:25;100252.44;;;-8.38;66.10
61484;BME280;47349;55.640;37.692;2022-12-07T11:22:10;100227.13;;;-8.33;65.88
61484;BME280;47349;55.640;37.692;2022-12-07T11:27:26;100225.31;;;-8.29;65.98
61484;BME280;47349;55.640;37.692;2022-12-07T11:33:41;100201.97;;;-8.31;65.86
61484;BME280;47349;55.640;37.692;2022-12-07T11:35:45;100224.97;;;-8.18;66.11
61484;BME280;47349;55.640;37.692;2022-12-07T11:38:16;100192.63;;;-8.36;65.88
61484;BME280;47349;55.640;37.692;2022-12-07T11:40:54;100216.41;;;-8.20;66.11
61484;BME280;47349;55.640;37.692;2022-12-07T11:43:34;100222.50;;;-8.21;66.40
61484;BME280;47349;55.640;37.692;2022-12-07T11:46:14;100210.41;;;-8.24;66.44
61484;BME280;47349;55.640;37.692;2022-12-07T11:49:44;100213.06;;;-8.25;65.80
61484;BME280;47349;55.640;37.692;2022-12-07T11:51:49;100197.75;;;-8.35;65.98
61484;BME280;47349;55.640;37.692;2022-12-07T11:54:27;100214.41;;;-8.40;66.53
61484;BME280;47349;55.640;37.692;2022-12-07T11:57:10;100219.50;;;-8.37;66.37
61484;BME280;47349;55.640;37.692;2022-12-07T12:00:01;100205.41;;;-8.30;66.30
61484;BME280;47349;55.640;37.692;2022-12-07T12:05:16;100196.78;;;-8.32;66.55
61484;BME280;47349;55.640;37.692;2022-12-07T12:07:45;100202.88;;;-8.33;67.00
61484;BME280;47349;55.640;37.692;2022-12-07T12:14:10;100187.97;;;-8.26;66.98
61484;BME280;47349;55.640;37.692;2022-12-07T12:20:32;100181.28;;;-8.35;67.69
61484;BME280;47349;55.640;37.692;2022-12-07T12:25:47;100177.19;;;-8.14;67.43
61484;BME280;47349;55.640;37.692;2022-12-07T12:28:49;100161.66;;;-8.16;67.17
61484;BME280;47349;55.640;37.692;2022-12-07T12:33:56;100159.00;;;-8.14;66.78
61484;BME280;47349;55.640;37.692;2022-12-07T12:54:36;100160.72;;;-8.72;69.70
61484;BME280;47349;55.640;37.692;2022-12-07T12:57:19;100174.50;;;-8.70;69.65
61484;BME280;47349;55.640;37.692;2022-12-07T13:02:30;100173.97;;;-8.82;70.61
61484;BME280;47349;55.640;37.692;2022-12-07T13:26:22;100175.72;;;-9.13;71.80
61484;BME280;47349;55.640;37.692;2022-12-07T13:29:18;100171.63;;;-9.23;72.32
61484;BME280;47349;55.640;37.692;2022-12-07T13:31:49;100186.34;;;-9.24;72.30
61484;BME280;47349;55.640;37.692;2022-12-07T13:34:39;100169.00;;;-9.22;72.59
61484;BME280;47349;55.640;37.692;2022-12-07T13:39:47;100173.31;;;-9.21;72.95
61484;BME280;47349;55.640;37.692;2022-12-07T13:42:35;100175.94;;;-9.22;72.63
61484;BME280;47349;55.640;37.692;2022-12-07T13:45:20;100166.44;;;-9.23;72.74
61484;BME280;47349;55.640;37.692;2022-12-07T13:47:55;100143.63;;;-9.45;72.71
61484;BME280;47349;55.640;37.692;2022-12-07T13:50:27;100162.38;;;-9.34;72.54
61484;BME280;47349;55.640;37.692;2022-12-07T13:52:57;100171.00;;;-9.32;72.79
61484;BME280;47349;55.640;37.692;2022-12-07T13:55:24;100174.59;;;-9.37;73.28
61484;BME280;47349;55.640;37.692;2022-12-07T13:57:53;100135.91;;;-9.48;73.21
61484;BME280;47349;55.640;37.692;2022-12-07T14:00:27;100164.31;;;-9.42;73.26
61484;BME280;47349;55.640;37.692;2022-12-07T14:03:25;100158.47;;;-9.50;73.47
61484;BME280;47349;55.640;37.692;2022-12-07T14:08:40;100129.47;;;-9.66;73.73
61484;BME280;47349;55.640;37.692;2022-12-07T14:11:16;100132.81;;;-9.62;73.53
61484;BME280;47349;55.640;37.692;2022-12-07T14:19:00;100136.69;;;-9.78;74.44
61484;BME280;47349;55.640;37.692;2022-12-07T14:21:43;100146.91;;;-9.72;74.19
61484;BME280;47349;55.640;37.692;2022-12-07T14:24:20;100149.66;;;-9.78;74.13
61484;BME280;47349;55.640;37.692;2022-12-07T14:27:19;100118.06;;;-9.94;74.07
61484;BME280;47349;55.640;37.692;2022-12-07T14:29:47;100136.81;;;-9.83;74.36
61484;BME280;47349;55.640;37.692;2022-12-07T14:32:26;100134.31;;;-9.88;74.87
61484;BME280;47349;55.640;37.692;2022-12-07T14:35:15;100136.75;;;-9.81;74.42
61484;BME280;47349;55.640;37.692;2022-12-07T14:37:45;100146.28;;;-9.80;74.60
61484;BME280;47349;55.640;37.692;2022-12-07T14:40:16;100116.25;;;-9.91;74.81
61484;BME280;47349;55.640;37.692;2022-12-07T14:42:44;100125.53;;;-9.80;74.61
61484;BME280;47349;55.640;37.692;2022-12-07T14:45:15;100139.19;;;-9.74;74.21
61484;BME280;47349;55.640;37.692;2022-12-07T14:47:44;100118.75;;;-9.88;74.78
61484;BME280;47349;55.640;37.692;2022-12-07T14:50:36;100130.72;;;-9.80;75.02
61484;BME280;47349;55.640;37.692;2022-12-07T14:53:41;100116.88;;;-9.81;75.28
61484;BME280;47349;55.640;37.692;2022-12-07T14:56:10;100121.28;;;-9.85;75.02
61484;BME280;47349;55.640;37.692;2022-12-07T14:58:37;100110.25;;;-9.93;75.42
61484;BME280;47349;55.640;37.692;2022-12-07T15:01:04;100114.41;;;-9.87;75.52
61484;BME280;47349;55.640;37.692;2022-12-07T15:03:40;100132.34;;;-9.78;75.51
61484;BME280;47349;55.640;37.692;2022-12-07T15:06:10;100116.16;;;-9.88;75.56
61484;BME280;47349;55.640;37.692;2022-12-07T15:08:40;100104.09;;;-9.89;75.47
61484;BME280;47349;55.640;37.692;2022-12-07T15:11:14;100145.22;;;-9.73;75.68
61484;BME280;47349;55.640;37.692;2022-12-07T15:13:42;100093.84;;;-9.93;75.41
61484;BME280;47349;55.640;37.692;2022-12-07T15:16:28;100091.13;;;-9.89;76.13
61484;BME280;47349;55.640;37.692;2022-12-07T15:19:14;100115.78;;;-9.72;75.76
61484;BME280;47349;55.640;37.692;2022-12-07T15:21:56;100122.19;;;-9.86;75.54
61484;BME280;47349;55.640;37.692;2022-12-07T15:24:28;100104.88;;;-9.85;76.00
61484;BME280;47349;55.640;37.692;2022-12-07T15:26:56;100095.59;;;-9.94;75.91
61484;BME280;47349;55.640;37.692;2022-12-07T15:29:23;100087.81;;;-9.94;76.20
61484;BME280;47349;55.640;37.692;2022-12-07T15:31:51;100111.66;;;-9.79;76.33
61484;BME280;47349;55.640;37.692;2022-12-07T15:34:25;100118.66;;;-9.83;76.18
61484;BME280;47349;55.640;37.692;2022-12-07T15:37:07;100122.09;;;-9.82;76.40